createdAt,value
2022-08-26T00:00:27.529Z,2.20
2022-08-26T00:01:44.123Z,2.60
2022-08-26T00:02:52.408Z,2.30
2022-08-26T00:04:00.459Z,2.00
2022-08-26T00:05:07.774Z,2.00
2022-08-26T00:06:16.222Z,2.10
2022-08-26T00:07:29.292Z,1.90
2022-08-26T00:08:36.828Z,2.30
2022-08-26T00:09:47.828Z,1.90
2022-08-26T00:10:57.791Z,2.20
2022-08-26T00:12:08.007Z,2.40
2022-08-26T00:13:19.495Z,2.40
2022-08-26T00:14:31.007Z,2.00
2022-08-26T00:15:40.475Z,2.30
2022-08-26T00:16:48.997Z,2.00
2022-08-26T00:17:56.619Z,2.00
2022-08-26T00:19:04.129Z,2.00
2022-08-26T00:20:12.430Z,2.20
2022-08-26T00:21:22.241Z,1.90
2022-08-26T00:22:32.572Z,2.10
2022-08-26T00:23:40.800Z,1.90
2022-08-26T00:24:49.492Z,1.70
2022-08-26T00:25:57.506Z,2.00
2022-08-26T00:27:06.293Z,2.20
2022-08-26T00:28:14.377Z,2.30
2022-08-26T00:29:27.569Z,2.00
2022-08-26T00:30:38.108Z,1.80
2022-08-26T00:31:46.290Z,1.80
2022-08-26T00:32:54.225Z,2.00
2022-08-26T00:34:01.915Z,2.30
2022-08-26T00:35:11.877Z,2.00
2022-08-26T00:36:20.293Z,2.10
2022-08-26T00:37:29.604Z,1.90
2022-08-26T00:38:38.415Z,2.10
2022-08-26T00:39:47.899Z,1.90
2022-08-26T00:40:57.108Z,2.00
2022-08-26T00:42:04.326Z,1.90
2022-08-26T00:43:12.029Z,1.90
2022-08-26T00:44:21.438Z,1.90
2022-08-26T00:45:30.601Z,1.90
2022-08-26T00:46:44.974Z,1.90
2022-08-26T00:47:58.299Z,1.80
2022-08-26T00:49:42.396Z,2.00
2022-08-26T00:51:00.137Z,1.80
2022-08-26T00:52:12.067Z,1.70
2022-08-26T00:53:27.819Z,1.90
2022-08-26T00:54:37.393Z,1.70
2022-08-26T00:55:45.499Z,1.80
2022-08-26T00:57:01.493Z,2.20
2022-08-26T00:58:09.270Z,1.90
2022-08-26T00:59:17.743Z,1.90
2022-08-26T01:00:29.162Z,1.90
2022-08-26T01:01:39.385Z,1.90
2022-08-26T01:02:47.567Z,2.00
2022-08-26T01:03:55.136Z,1.90
2022-08-26T01:05:04.185Z,1.70
2022-08-26T01:06:14.313Z,2.10
2022-08-26T01:07:23.539Z,1.80
2022-08-26T01:08:32.316Z,1.90
2022-08-26T01:09:40.413Z,2.10
2022-08-26T01:10:48.714Z,2.20
2022-08-26T01:11:59.130Z,2.30
2022-08-26T01:13:08.403Z,1.90
2022-08-26T01:14:17.219Z,1.80
2022-08-26T01:15:33.437Z,2.20
2022-08-26T01:16:42.307Z,2.20
2022-08-26T01:17:52.576Z,2.20
2022-08-26T01:19:04.867Z,2.10
2022-08-26T01:20:51.978Z,2.20
2022-08-26T01:22:09.276Z,2.40
2022-08-26T01:23:17.715Z,2.30
2022-08-26T01:24:30.998Z,2.20
2022-08-26T01:25:44.942Z,2.10
2022-08-26T01:26:52.691Z,2.20
2022-08-26T01:27:59.629Z,2.30
2022-08-26T01:29:07.285Z,2.00
2022-08-26T01:30:16.264Z,2.10
2022-08-26T01:31:27.052Z,2.10
2022-08-26T01:32:35.316Z,2.30
2022-08-26T01:33:58.796Z,2.20
2022-08-26T01:35:07.829Z,2.20
2022-08-26T01:36:17.197Z,2.00
2022-08-26T01:37:29.278Z,2.10
2022-08-26T01:38:37.209Z,2.20
2022-08-26T01:39:45.208Z,2.40
2022-08-26T01:40:52.735Z,2.10
2022-08-26T01:42:03.216Z,2.60
2022-08-26T01:43:10.555Z,2.40
2022-08-26T01:44:19.839Z,2.50
2022-08-26T01:45:29.888Z,2.40
2022-08-26T01:46:37.590Z,2.30
2022-08-26T01:47:45.531Z,2.20
2022-08-26T01:48:54.524Z,2.20
2022-08-26T01:50:03.168Z,2.10
2022-08-26T01:51:11.251Z,2.20
2022-08-26T01:52:28.090Z,2.10
2022-08-26T01:53:37.276Z,2.40
2022-08-26T01:54:46.358Z,2.50
2022-08-26T01:56:01.103Z,2.10
2022-08-26T01:57:10.317Z,2.30
2022-08-26T01:58:29.096Z,2.20
2022-08-26T01:59:37.929Z,2.60
2022-08-26T02:00:46.368Z,2.30
2022-08-26T02:01:54.508Z,2.50
2022-08-26T02:03:23.527Z,2.30
2022-08-26T02:04:44.994Z,2.70
2022-08-26T02:05:58.685Z,2.60
2022-08-26T02:07:08.409Z,2.30
2022-08-26T02:08:16.868Z,2.10
2022-08-26T02:09:33.677Z,2.20
2022-08-26T02:10:49.238Z,2.40
2022-08-26T02:12:03.358Z,3.30
2022-08-26T02:13:11.779Z,2.80
2022-08-26T02:14:30.721Z,2.40
2022-08-26T02:15:39.158Z,2.90
2022-08-26T02:16:48.739Z,2.50
2022-08-26T02:17:57.747Z,2.20
2022-08-26T02:19:06.479Z,2.40
2022-08-26T02:20:21.268Z,2.30
2022-08-26T02:21:29.947Z,2.40
2022-08-26T02:22:38.915Z,2.30
2022-08-26T02:23:49.831Z,2.30
2022-08-26T02:25:00.237Z,2.70
2022-08-26T02:26:19.203Z,3.10
2022-08-26T02:27:34.119Z,2.40
2022-08-26T02:28:55.439Z,2.50
2022-08-26T02:30:14.107Z,3.10
2022-08-26T02:31:28.362Z,2.70
2022-08-26T02:32:36.503Z,2.20
2022-08-26T02:33:44.184Z,2.40
2022-08-26T02:34:51.558Z,2.80
2022-08-26T02:35:59.350Z,2.70
2022-08-26T02:37:09.899Z,2.50
2022-08-26T02:38:18.535Z,2.50
2022-08-26T02:39:27.961Z,2.80
2022-08-26T02:40:37.758Z,2.80
2022-08-26T02:41:47.022Z,2.70
2022-08-26T02:42:57.104Z,2.50
2022-08-26T02:44:04.621Z,2.70
2022-08-26T02:45:12.866Z,2.50
2022-08-26T02:46:26.771Z,2.90
2022-08-26T02:47:40.116Z,2.90
2022-08-26T02:48:48.345Z,2.80
2022-08-26T02:49:56.593Z,2.80
2022-08-26T02:51:04.439Z,3.10
2022-08-26T02:52:13.085Z,2.90
2022-08-26T02:53:25.197Z,2.60
2022-08-26T02:54:34.846Z,2.70
2022-08-26T02:55:43.442Z,2.50
2022-08-26T02:56:51.981Z,2.70
2022-08-26T02:57:59.669Z,3.00
2022-08-26T02:59:07.188Z,2.60
2022-08-26T03:00:17.277Z,3.30
2022-08-26T03:01:31.588Z,3.50
2022-08-26T03:02:39.329Z,2.50
2022-08-26T03:03:47.550Z,2.60
2022-08-26T03:05:01.791Z,2.90
2022-08-26T03:06:10.556Z,2.90
2022-08-26T03:07:18.389Z,2.50
2022-08-26T03:08:27.059Z,2.30
2022-08-26T03:09:36.031Z,2.30
2022-08-26T03:10:44.407Z,2.50
2022-08-26T03:11:53.516Z,2.10
2022-08-26T03:13:05.130Z,2.60
2022-08-26T03:14:14.981Z,2.90
2022-08-26T03:15:25.046Z,2.50
2022-08-26T03:16:37.209Z,2.30
2022-08-26T03:17:46.143Z,2.20
2022-08-26T03:18:54.016Z,2.50
2022-08-26T03:20:01.775Z,2.40
2022-08-26T03:21:14.405Z,2.40
2022-08-26T03:22:23.015Z,2.40
2022-08-26T03:23:33.727Z,2.70
2022-08-26T03:24:46.057Z,2.70
2022-08-26T03:25:54.776Z,2.90
2022-08-26T03:27:05.944Z,3.10
2022-08-26T03:28:16.214Z,2.40
2022-08-26T03:29:49.529Z,2.60
2022-08-26T03:30:59.560Z,2.60
2022-08-26T03:32:07.713Z,2.60
2022-08-26T03:33:16.195Z,2.40
2022-08-26T03:34:24.623Z,2.50
2022-08-26T03:35:35.610Z,2.90
2022-08-26T03:36:43.799Z,2.70
2022-08-26T03:37:52.637Z,2.50
2022-08-26T03:39:00.395Z,2.50
2022-08-26T03:40:09.653Z,2.60
2022-08-26T03:41:17.388Z,2.40
2022-08-26T03:42:25.143Z,2.80
2022-08-26T03:43:33.049Z,2.70
2022-08-26T03:44:42.464Z,2.80
2022-08-26T03:45:51.333Z,2.90
2022-08-26T03:47:00.268Z,3.20
2022-08-26T03:48:07.942Z,3.30
2022-08-26T03:49:15.973Z,3.50
2022-08-26T03:50:25.226Z,3.20
2022-08-26T03:51:34.962Z,3.20
2022-08-26T03:52:48.434Z,3.00
2022-08-26T03:53:57.127Z,3.00
2022-08-26T03:55:05.669Z,3.00
2022-08-26T03:56:13.377Z,3.40
2022-08-26T03:57:22.757Z,3.20
2022-08-26T03:58:31.218Z,3.10
2022-08-26T03:59:41.273Z,3.10
2022-08-26T04:00:49.616Z,3.00
2022-08-26T04:02:03.425Z,3.20
2022-08-26T04:03:37.824Z,2.90
2022-08-26T04:04:46.609Z,2.90
2022-08-26T04:05:54.799Z,3.00
2022-08-26T04:07:02.804Z,2.90
2022-08-26T04:08:10.154Z,3.00
2022-08-26T04:09:22.738Z,3.40
2022-08-26T04:10:35.065Z,3.10
2022-08-26T04:11:44.236Z,3.20
2022-08-26T04:12:53.352Z,3.00
2022-08-26T04:14:01.996Z,3.10
2022-08-26T04:15:10.741Z,3.00
2022-08-26T04:16:19.249Z,3.00
2022-08-26T04:17:27.939Z,3.40
2022-08-26T04:18:40.559Z,2.90
2022-08-26T04:19:57.541Z,3.20
2022-08-26T04:21:04.694Z,2.80
2022-08-26T04:22:15.150Z,3.00
2022-08-26T04:23:32.293Z,3.50
2022-08-26T04:24:55.497Z,3.10
2022-08-26T04:26:03.358Z,2.90
2022-08-26T04:27:12.768Z,2.60
2022-08-26T04:28:20.908Z,3.10
2022-08-26T04:29:29.685Z,3.20
2022-08-26T04:30:41.247Z,3.20
2022-08-26T04:31:51.702Z,3.30
2022-08-26T04:33:13.348Z,3.20
2022-08-26T04:34:21.786Z,3.60
2022-08-26T04:35:29.908Z,3.20
2022-08-26T04:36:37.379Z,3.60
2022-08-26T04:37:45.975Z,3.70
2022-08-26T04:38:54.147Z,3.20
2022-08-26T04:40:01.752Z,3.40
2022-08-26T04:41:15.418Z,3.20
2022-08-26T04:42:26.048Z,3.50
2022-08-26T04:43:35.303Z,3.40
2022-08-26T04:44:43.285Z,3.30
2022-08-26T04:45:51.600Z,3.60
2022-08-26T04:47:00.389Z,3.70
2022-08-26T04:48:07.975Z,3.90
2022-08-26T04:49:19.574Z,3.60
2022-08-26T04:50:28.668Z,3.60
2022-08-26T04:51:40.686Z,3.70
2022-08-26T04:52:48.817Z,3.50
2022-08-26T04:54:04.795Z,4.30
2022-08-26T04:55:12.681Z,3.60
2022-08-26T04:56:22.232Z,4.00
2022-08-26T04:57:30.462Z,3.60
2022-08-26T04:58:40.340Z,3.30
2022-08-26T04:59:50.039Z,3.80
2022-08-26T05:00:58.105Z,3.80
2022-08-26T05:02:05.798Z,5.00
2022-08-26T05:03:14.002Z,4.00
2022-08-26T05:04:22.990Z,4.00
2022-08-26T05:05:33.653Z,3.80
2022-08-26T05:06:43.576Z,4.00
2022-08-26T05:07:52.205Z,3.50
2022-08-26T05:09:01.379Z,4.90
2022-08-26T05:10:10.733Z,3.70
2022-08-26T05:11:19.270Z,3.80
2022-08-26T05:12:34.472Z,4.30
2022-08-26T05:13:43.576Z,4.30
2022-08-26T05:14:51.945Z,3.80
2022-08-26T05:16:01.265Z,4.90
2022-08-26T05:17:08.938Z,4.10
2022-08-26T05:18:18.142Z,4.20
2022-08-26T05:19:28.231Z,4.00
2022-08-26T05:20:40.820Z,3.90
2022-08-26T05:21:50.354Z,4.10
2022-08-26T05:22:58.599Z,4.20
2022-08-26T05:24:06.903Z,4.00
2022-08-26T05:25:14.386Z,4.10
2022-08-26T05:26:23.021Z,3.70
2022-08-26T05:27:31.178Z,4.10
2022-08-26T05:28:40.448Z,4.20
2022-08-26T05:29:47.978Z,4.20
2022-08-26T05:31:02.245Z,4.60
2022-08-26T05:32:09.850Z,4.30
2022-08-26T05:33:19.790Z,4.90
2022-08-26T05:34:30.282Z,4.50
2022-08-26T05:35:39.820Z,4.20
2022-08-26T05:36:48.081Z,4.30
2022-08-26T05:37:56.181Z,4.60
2022-08-26T05:39:04.041Z,5.00
2022-08-26T05:40:12.585Z,4.30
2022-08-26T05:41:26.406Z,4.80
2022-08-26T05:42:35.380Z,4.40
2022-08-26T05:43:43.415Z,4.70
2022-08-26T05:44:56.056Z,5.50
2022-08-26T05:46:08.399Z,4.80
2022-08-26T05:47:15.960Z,5.00
2022-08-26T05:48:25.618Z,4.90
2022-08-26T05:49:33.741Z,4.90
2022-08-26T05:50:46.395Z,5.40
2022-08-26T05:51:54.939Z,5.20
2022-08-26T05:53:02.894Z,5.00
2022-08-26T05:54:12.180Z,5.30
2022-08-26T05:55:20.718Z,4.90
2022-08-26T05:56:30.749Z,5.20
2022-08-26T05:57:40.555Z,5.60
2022-08-26T05:58:51.906Z,5.70
2022-08-26T05:59:59.509Z,5.90
2022-08-26T06:01:09.701Z,5.00
2022-08-26T06:02:17.714Z,5.00
2022-08-26T06:03:27.838Z,5.70
2022-08-26T06:04:35.066Z,5.90
2022-08-26T06:05:43.763Z,5.40
2022-08-26T06:06:52.580Z,6.20
2022-08-26T06:08:20.849Z,5.60
2022-08-26T06:09:29.649Z,5.80
2022-08-26T06:10:59.555Z,5.40
2022-08-26T06:12:07.037Z,5.50
2022-08-26T06:13:14.998Z,5.80
2022-08-26T06:14:24.787Z,5.70
2022-08-26T06:15:34.828Z,5.80
2022-08-26T06:16:47.017Z,5.80
2022-08-26T06:17:54.941Z,6.20
2022-08-26T06:19:10.831Z,6.00
2022-08-26T06:20:20.688Z,6.10
2022-08-26T06:21:34.699Z,6.20
2022-08-26T06:23:00.420Z,5.70
2022-08-26T06:24:30.705Z,5.50
2022-08-26T06:25:40.563Z,6.20
2022-08-26T06:26:55.862Z,5.70
2022-08-26T06:28:03.700Z,5.20
2022-08-26T06:29:11.501Z,6.70
2022-08-26T06:30:25.266Z,6.30
2022-08-26T06:31:34.639Z,5.90
2022-08-26T06:32:42.037Z,6.00
2022-08-26T06:33:50.248Z,6.30
2022-08-26T06:34:57.932Z,6.20
2022-08-26T06:36:05.186Z,6.60
2022-08-26T06:37:12.278Z,6.30
2022-08-26T06:38:20.880Z,6.10
2022-08-26T06:39:30.868Z,5.70
2022-08-26T06:40:47.461Z,6.40
2022-08-26T06:41:57.740Z,6.30
2022-08-26T06:43:05.355Z,6.60
2022-08-26T06:44:13.159Z,6.80
2022-08-26T06:45:21.687Z,6.90
2022-08-26T06:46:30.530Z,6.90
2022-08-26T06:47:39.274Z,6.20
2022-08-26T06:48:47.774Z,7.10
2022-08-26T06:49:55.938Z,6.40
2022-08-26T06:51:11.857Z,7.90
2022-08-26T06:52:24.420Z,6.80
2022-08-26T06:53:34.171Z,6.70
2022-08-26T06:54:44.749Z,6.10
2022-08-26T06:55:52.732Z,6.60
2022-08-26T06:57:00.566Z,6.90
2022-08-26T06:58:07.721Z,6.70
2022-08-26T06:59:14.975Z,6.90
2022-08-26T07:00:23.187Z,7.20
2022-08-26T07:01:36.802Z,6.80
2022-08-26T07:02:47.033Z,7.20
2022-08-26T07:03:57.854Z,7.20
2022-08-26T07:05:06.290Z,7.10
2022-08-26T07:06:14.788Z,6.60
2022-08-26T07:07:24.570Z,7.30
2022-08-26T07:08:31.969Z,7.40
2022-08-26T07:09:41.799Z,6.70
2022-08-26T07:10:49.759Z,7.50
2022-08-26T07:12:01.055Z,7.20
2022-08-26T07:13:08.708Z,7.90
2022-08-26T07:14:15.947Z,7.70
2022-08-26T07:15:23.901Z,8.70
2022-08-26T07:16:40.778Z,8.00
2022-08-26T07:17:48.319Z,7.00
2022-08-26T07:18:57.372Z,7.20
2022-08-26T07:20:07.591Z,7.30
2022-08-26T07:21:18.288Z,6.80
2022-08-26T07:22:27.939Z,7.10
2022-08-26T07:23:37.336Z,7.90
2022-08-26T07:24:49.317Z,7.00
2022-08-26T07:25:56.691Z,7.30
2022-08-26T07:27:08.942Z,7.50
2022-08-26T07:28:15.938Z,7.50
2022-08-26T07:29:24.460Z,7.10
2022-08-26T07:30:33.004Z,7.30
2022-08-26T07:31:42.874Z,6.80
2022-08-26T07:32:51.387Z,6.80
2022-08-26T07:33:58.997Z,7.20
2022-08-26T07:35:08.167Z,6.90
2022-08-26T07:36:16.087Z,7.00
2022-08-26T07:37:24.037Z,7.30
2022-08-26T07:38:30.998Z,6.80
2022-08-26T07:39:43.260Z,7.50
2022-08-26T07:40:50.996Z,7.70
2022-08-26T07:41:58.497Z,6.70
2022-08-26T07:43:07.681Z,7.70
2022-08-26T07:44:17.006Z,7.20
2022-08-26T07:45:25.370Z,7.60
2022-08-26T07:46:34.459Z,6.70
2022-08-26T07:47:43.622Z,7.10
2022-08-26T07:48:52.212Z,7.00
2022-08-26T07:50:00.341Z,6.50
2022-08-26T07:51:08.149Z,6.30
2022-08-26T07:52:16.204Z,6.20
2022-08-26T07:53:24.635Z,7.10
2022-08-26T07:54:34.124Z,7.40
2022-08-26T07:55:42.594Z,6.80
2022-08-26T07:56:51.182Z,6.80
2022-08-26T07:58:00.557Z,7.20
2022-08-26T07:59:13.333Z,7.40
2022-08-26T08:00:22.611Z,6.60
2022-08-26T08:01:35.623Z,6.90
2022-08-26T08:02:47.873Z,6.60
2022-08-26T08:03:58.618Z,6.10
2022-08-26T08:05:06.860Z,6.40
2022-08-26T08:06:15.884Z,6.60
2022-08-26T08:07:25.823Z,6.90
2022-08-26T08:08:53.292Z,6.70
2022-08-26T08:10:01.222Z,7.50
2022-08-26T08:11:10.539Z,6.90
2022-08-26T08:12:19.739Z,7.80
2022-08-26T08:13:28.524Z,8.00
2022-08-26T08:14:39.204Z,8.30
2022-08-26T08:15:47.003Z,7.50
2022-08-26T08:16:57.872Z,7.30
2022-08-26T08:18:05.872Z,6.80
2022-08-26T08:19:24.369Z,6.90
2022-08-26T08:20:47.676Z,7.60
2022-08-26T08:22:17.968Z,7.80
2022-08-26T08:23:29.166Z,7.40
2022-08-26T08:24:38.589Z,7.70
2022-08-26T08:25:47.086Z,8.20
2022-08-26T08:26:56.138Z,7.90
2022-08-26T08:28:03.878Z,7.50
2022-08-26T08:29:12.637Z,6.50
2022-08-26T08:30:22.829Z,6.50
2022-08-26T08:32:59.322Z,7.90
2022-08-26T08:34:07.024Z,8.30
2022-08-26T08:35:16.608Z,8.30
2022-08-26T08:36:24.534Z,9.10
2022-08-26T08:37:32.411Z,9.20
2022-08-26T08:38:40.261Z,9.40
2022-08-26T08:39:53.453Z,9.40
2022-08-26T08:41:05.645Z,8.10
2022-08-26T08:42:37.020Z,7.70
2022-08-26T08:43:44.182Z,8.30
2022-08-26T08:44:52.660Z,6.90
2022-08-26T08:46:14.477Z,7.50
2022-08-26T08:47:35.225Z,7.60
2022-08-26T08:48:45.269Z,7.10
2022-08-26T08:49:52.487Z,7.60
2022-08-26T08:51:01.600Z,8.00
2022-08-26T08:52:30.299Z,7.10
2022-08-26T08:53:43.156Z,7.40
2022-08-26T08:54:50.560Z,7.40
2022-08-26T08:56:09.528Z,7.80
2022-08-26T08:57:44.440Z,7.10
2022-08-26T08:58:56.883Z,7.80
2022-08-26T09:00:13.165Z,7.80
2022-08-26T09:01:52.338Z,7.20
2022-08-26T09:03:07.998Z,7.90
2022-08-26T09:04:53.169Z,8.60
2022-08-26T09:06:00.515Z,7.20
2022-08-26T09:07:12.688Z,7.60
2022-08-26T09:08:30.037Z,8.30
2022-08-26T09:09:43.896Z,8.00
2022-08-26T09:10:57.504Z,8.10
2022-08-26T09:12:06.172Z,6.80
2022-08-26T09:13:16.952Z,7.80
2022-08-26T09:14:34.464Z,7.40
2022-08-26T09:15:57.889Z,7.60
2022-08-26T09:17:31.630Z,8.20
2022-08-26T09:18:53.850Z,7.90
2022-08-26T09:20:35.500Z,7.80
2022-08-26T09:21:44.343Z,7.10
2022-08-26T09:22:52.649Z,8.30
2022-08-26T09:23:59.961Z,7.70
2022-08-26T09:25:11.225Z,8.60
2022-08-26T09:26:43.894Z,7.20
2022-08-26T09:27:53.321Z,7.70
2022-08-26T09:29:05.484Z,8.50
2022-08-26T09:30:24.878Z,7.50
2022-08-26T09:31:37.786Z,7.50
2022-08-26T09:32:55.998Z,7.20
2022-08-26T09:34:07.935Z,7.90
2022-08-26T09:35:43.162Z,8.60
2022-08-26T09:36:57.386Z,8.40
2022-08-26T09:38:04.860Z,8.70
2022-08-26T09:39:28.167Z,9.10
2022-08-26T09:40:36.404Z,8.10
2022-08-26T09:41:43.813Z,8.90
2022-08-26T09:43:11.450Z,8.00
2022-08-26T09:44:21.976Z,7.80
2022-08-26T09:45:31.985Z,8.20
2022-08-26T09:46:41.575Z,8.90
2022-08-26T09:47:50.303Z,8.40
2022-08-26T09:48:57.962Z,9.00
2022-08-26T09:50:12.393Z,8.30
2022-08-26T09:51:25.972Z,8.70
2022-08-26T09:52:35.059Z,8.90
2022-08-26T09:54:03.059Z,8.50
2022-08-26T09:55:14.378Z,8.60
2022-08-26T09:56:29.039Z,8.80
2022-08-26T09:57:39.011Z,9.30
2022-08-26T09:58:48.473Z,9.20
2022-08-26T09:59:55.983Z,8.70
2022-08-26T10:01:05.461Z,8.70
2022-08-26T10:02:31.495Z,8.40
2022-08-26T10:03:39.893Z,8.90
2022-08-26T10:04:56.141Z,7.90
2022-08-26T10:06:24.705Z,9.30
2022-08-26T10:07:44.401Z,9.10
2022-08-26T10:08:56.196Z,8.60
2022-08-26T10:10:05.262Z,9.20
2022-08-26T10:11:53.868Z,9.20
2022-08-26T10:13:05.979Z,9.50
2022-08-26T10:14:28.932Z,8.90
2022-08-26T10:16:05.985Z,9.40
2022-08-26T10:17:41.764Z,8.70
2022-08-26T10:18:59.911Z,9.40
2022-08-26T10:20:23.197Z,9.00
2022-08-26T10:21:48.456Z,8.80
2022-08-26T10:23:06.938Z,8.60
2022-08-26T10:24:14.362Z,8.90
2022-08-26T10:25:27.367Z,8.90
2022-08-26T10:26:43.682Z,9.10
2022-08-26T10:28:11.087Z,8.90
2022-08-26T10:29:23.560Z,9.80
2022-08-26T10:30:42.907Z,8.90
2022-08-26T10:31:58.750Z,9.80
2022-08-26T10:33:11.737Z,10.00
2022-08-26T10:34:21.105Z,9.10
2022-08-26T10:35:30.118Z,10.10
2022-08-26T10:37:15.216Z,9.50
2022-08-26T10:38:24.118Z,9.10
2022-08-26T10:39:39.648Z,9.10
2022-08-26T10:41:01.357Z,9.80
2022-08-26T10:42:18.349Z,9.10
2022-08-26T10:43:50.782Z,9.80
2022-08-26T10:44:58.859Z,9.20
2022-08-26T10:46:07.380Z,9.00
2022-08-26T10:47:26.978Z,9.40
2022-08-26T10:48:40.635Z,9.60
2022-08-26T10:49:49.497Z,9.70
2022-08-26T10:50:57.333Z,9.70
2022-08-26T10:52:23.660Z,8.50
2022-08-26T10:53:51.608Z,8.50
2022-08-26T10:55:05.133Z,7.80
2022-08-26T10:56:30.941Z,7.60
2022-08-26T10:58:09.199Z,7.90
2022-08-26T10:59:47.994Z,7.60
2022-08-26T11:01:22.692Z,7.90
2022-08-26T11:02:47.063Z,8.00
2022-08-26T11:04:13.034Z,7.90
2022-08-26T11:05:21.237Z,9.20
2022-08-26T11:06:30.419Z,8.40
2022-08-26T11:07:47.714Z,8.30
2022-08-26T11:08:58.004Z,8.90
2022-08-26T11:10:21.741Z,8.40
2022-08-26T11:11:49.392Z,8.70
2022-08-26T11:13:04.836Z,9.00
2022-08-26T11:14:28.917Z,8.90
2022-08-26T11:15:42.864Z,9.40
2022-08-26T11:16:55.471Z,9.40
2022-08-26T11:18:04.034Z,7.90
2022-08-26T11:19:11.915Z,9.70
2022-08-26T11:20:25.095Z,8.70
2022-08-26T11:21:51.669Z,9.00
2022-08-26T11:23:19.486Z,8.80
2022-08-26T11:25:01.576Z,8.60
2022-08-26T11:26:12.373Z,9.50
2022-08-26T11:27:28.818Z,8.90
2022-08-26T11:28:46.674Z,10.10
2022-08-26T11:30:07.164Z,9.70
2022-08-26T11:31:21.304Z,9.50
2022-08-26T11:32:49.418Z,9.30
2022-08-26T11:34:05.342Z,8.70
2022-08-26T11:35:13.027Z,9.80
2022-08-26T11:36:44.494Z,10.10
2022-08-26T11:38:04.302Z,9.20
2022-08-26T11:39:38.666Z,9.00
2022-08-26T11:40:47.846Z,8.60
2022-08-26T11:41:57.846Z,8.50
2022-08-26T11:43:36.497Z,8.00
2022-08-26T11:44:49.258Z,8.80
2022-08-26T11:46:06.922Z,8.50
2022-08-26T11:47:17.626Z,9.70
2022-08-26T11:48:33.145Z,10.10
2022-08-26T11:49:41.952Z,10.80
2022-08-26T11:51:02.583Z,8.70
2022-08-26T11:52:13.965Z,9.00
2022-08-26T11:53:21.504Z,9.70
2022-08-26T11:54:35.815Z,9.30
2022-08-26T11:55:47.365Z,8.40
2022-08-26T11:56:55.656Z,9.30
2022-08-26T11:58:04.794Z,9.20
2022-08-26T11:59:16.767Z,9.80
2022-08-26T12:00:37.984Z,10.10
2022-08-26T12:01:51.860Z,10.00
2022-08-26T12:03:00.999Z,9.40
2022-08-26T12:04:10.096Z,9.00
2022-08-26T12:05:19.502Z,9.40
2022-08-26T12:06:28.649Z,9.00
2022-08-26T12:07:38.105Z,9.80
2022-08-26T12:08:51.136Z,9.10
2022-08-26T12:10:03.297Z,9.70
2022-08-26T12:11:18.186Z,9.30
2022-08-26T12:12:35.051Z,9.20
2022-08-26T12:13:46.407Z,8.90
2022-08-26T12:15:21.610Z,9.60
2022-08-26T12:16:38.860Z,9.10
2022-08-26T12:17:49.440Z,9.10
2022-08-26T12:19:01.529Z,9.00
2022-08-26T12:20:18.757Z,10.10
2022-08-26T12:21:36.221Z,9.50
2022-08-26T12:22:48.015Z,9.10
2022-08-26T12:23:57.447Z,9.20
2022-08-26T12:25:07.199Z,9.90
2022-08-26T12:26:31.498Z,9.10
2022-08-26T12:27:46.210Z,9.40
2022-08-26T12:29:01.049Z,9.80
2022-08-26T12:30:17.934Z,10.10
2022-08-26T12:31:30.525Z,10.00
2022-08-26T12:32:57.166Z,10.90
2022-08-26T12:34:07.429Z,10.20
2022-08-26T12:35:25.611Z,9.80
2022-08-26T12:36:34.190Z,9.80
2022-08-26T12:37:52.489Z,10.20
2022-08-26T12:39:08.023Z,10.70
2022-08-26T12:40:35.624Z,9.80
2022-08-26T12:41:51.777Z,11.00
2022-08-26T12:43:01.546Z,9.90
2022-08-26T12:44:08.955Z,9.70
2022-08-26T12:45:16.620Z,10.30
2022-08-26T12:46:30.161Z,10.60
2022-08-26T12:47:45.386Z,10.70
2022-08-26T12:48:53.407Z,9.80
2022-08-26T12:50:23.888Z,10.00
2022-08-26T12:51:33.528Z,10.30
2022-08-26T12:53:08.459Z,10.20
2022-08-26T12:54:17.688Z,10.50
2022-08-26T12:55:30.004Z,10.50
2022-08-26T12:56:41.392Z,10.50
2022-08-26T12:57:49.841Z,10.60
2022-08-26T12:59:07.954Z,10.70
2022-08-26T13:00:36.650Z,10.60
2022-08-26T13:01:46.380Z,10.50
2022-08-26T13:02:54.891Z,11.00
2022-08-26T13:04:02.692Z,9.70
2022-08-26T13:05:10.700Z,11.30
2022-08-26T13:06:24.080Z,10.70
2022-08-26T13:07:32.178Z,11.30
2022-08-26T13:08:47.501Z,9.70
2022-08-26T13:09:57.173Z,11.50
2022-08-26T13:11:19.758Z,11.40
2022-08-26T13:12:35.110Z,10.80
2022-08-26T13:13:43.437Z,11.00
2022-08-26T13:14:52.561Z,11.20
2022-08-26T13:16:01.448Z,11.00
2022-08-26T13:17:09.392Z,10.50
2022-08-26T13:18:17.001Z,10.30
2022-08-26T13:19:27.170Z,10.80
2022-08-26T13:20:35.611Z,10.50
2022-08-26T13:21:55.918Z,11.30
2022-08-26T13:23:05.581Z,11.50
2022-08-26T13:24:13.692Z,11.90
2022-08-26T13:25:21.238Z,11.10
2022-08-26T13:26:29.054Z,10.90
2022-08-26T13:27:38.451Z,11.50
2022-08-26T13:28:47.707Z,10.60
2022-08-26T13:30:09.761Z,11.50
2022-08-26T13:31:21.716Z,12.50
2022-08-26T13:32:36.243Z,11.10
2022-08-26T13:33:50.156Z,12.60
2022-08-26T13:34:58.068Z,12.80
2022-08-26T13:36:06.390Z,13.80
2022-08-26T13:37:13.458Z,12.40
2022-08-26T13:38:33.635Z,12.20
2022-08-26T13:39:44.114Z,11.40
2022-08-26T13:40:52.250Z,11.10
2022-08-26T13:42:00.398Z,11.60
2022-08-26T13:43:08.515Z,12.20
2022-08-26T13:44:16.741Z,12.30
2022-08-26T13:45:24.891Z,11.30
2022-08-26T13:46:34.119Z,10.70
2022-08-26T13:47:43.441Z,11.30
2022-08-26T13:48:51.543Z,12.70
2022-08-26T13:50:00.110Z,11.80
2022-08-26T13:51:08.930Z,11.50
2022-08-26T13:52:16.420Z,12.50
2022-08-26T13:53:24.918Z,11.50
2022-08-26T13:54:33.371Z,11.60
2022-08-26T13:55:42.484Z,11.10
2022-08-26T13:56:50.289Z,10.40
2022-08-26T13:57:58.126Z,10.70
2022-08-26T13:59:05.810Z,11.30
2022-08-26T14:00:14.409Z,11.60
2022-08-26T14:01:21.699Z,10.90
2022-08-26T14:02:29.838Z,11.90
2022-08-26T14:03:38.345Z,11.20
2022-08-26T14:04:46.439Z,11.20
2022-08-26T14:05:57.212Z,11.60
2022-08-26T14:07:08.241Z,11.80
2022-08-26T14:08:18.319Z,12.30
2022-08-26T14:09:27.301Z,11.40
2022-08-26T14:10:36.280Z,11.00
2022-08-26T14:11:54.241Z,11.60
2022-08-26T14:13:03.741Z,11.20
2022-08-26T14:14:12.146Z,10.60
2022-08-26T14:15:20.182Z,10.20
2022-08-26T14:16:29.451Z,10.00
2022-08-26T14:17:38.010Z,9.80
2022-08-26T14:18:50.571Z,10.60
2022-08-26T14:19:59.749Z,10.80
2022-08-26T14:21:07.667Z,11.00
2022-08-26T14:22:17.775Z,10.90
2022-08-26T14:23:26.993Z,10.70
2022-08-26T14:24:35.025Z,11.10
2022-08-26T14:25:43.249Z,11.30
2022-08-26T14:26:52.695Z,11.80
2022-08-26T14:28:00.504Z,11.20
2022-08-26T14:29:12.383Z,11.20
2022-08-26T14:30:23.171Z,11.70
2022-08-26T14:31:33.467Z,11.70
2022-08-26T14:32:47.264Z,11.60
2022-08-26T14:33:55.211Z,11.90
2022-08-26T14:35:03.730Z,11.90
2022-08-26T14:36:30.418Z,12.10
2022-08-26T14:37:39.209Z,12.20
2022-08-26T14:38:48.185Z,11.80
2022-08-26T14:39:56.853Z,13.20
2022-08-26T14:41:08.392Z,11.20
2022-08-26T14:42:17.931Z,13.10
2022-08-26T14:43:25.649Z,12.10
2022-08-26T14:44:34.238Z,11.60
2022-08-26T14:45:46.560Z,12.70
2022-08-26T14:46:54.217Z,12.10
2022-08-26T14:48:02.177Z,12.10
2022-08-26T14:49:10.816Z,12.80
2022-08-26T14:50:20.456Z,12.40
2022-08-26T14:51:28.628Z,13.00
2022-08-26T14:52:56.898Z,12.00
2022-08-26T14:54:13.940Z,12.40
2022-08-26T14:55:21.288Z,13.30
2022-08-26T14:56:29.429Z,13.30
2022-08-26T14:57:37.839Z,13.20
2022-08-26T14:58:46.559Z,12.70
2022-08-26T14:59:54.057Z,13.00
2022-08-26T15:01:04.134Z,13.90
2022-08-26T15:02:32.436Z,14.70
2022-08-26T15:03:43.064Z,13.00
2022-08-26T15:04:51.803Z,13.70
2022-08-26T15:06:00.551Z,13.90
2022-08-26T15:07:08.750Z,12.50
2022-08-26T15:08:22.380Z,14.30
2022-08-26T15:09:31.367Z,15.10
2022-08-26T15:10:39.818Z,12.70
2022-08-26T15:11:48.144Z,13.50
2022-08-26T15:12:56.419Z,13.80
2022-08-26T15:14:05.244Z,14.30
2022-08-26T15:15:17.975Z,14.10
2022-08-26T15:16:26.119Z,12.00
2022-08-26T15:17:35.951Z,14.40
2022-08-26T15:18:44.118Z,14.60
2022-08-26T15:19:53.320Z,13.30
2022-08-26T15:21:01.285Z,14.50
2022-08-26T15:22:08.895Z,14.70
2022-08-26T15:23:16.066Z,15.50
2022-08-26T15:24:30.440Z,13.60
2022-08-26T15:25:38.639Z,14.50
2022-08-26T15:26:47.090Z,14.50
2022-08-26T15:27:54.501Z,14.40
2022-08-26T15:29:05.017Z,13.40
2022-08-26T15:30:13.503Z,13.00
2022-08-26T15:31:20.768Z,12.70
2022-08-26T15:32:27.876Z,14.00
2022-08-26T15:33:37.801Z,14.50
2022-08-26T15:34:45.045Z,13.00
2022-08-26T15:35:52.993Z,14.70
2022-08-26T15:37:03.615Z,14.20
2022-08-26T15:38:11.199Z,12.60
2022-08-26T15:39:18.507Z,15.00
2022-08-26T15:40:27.269Z,11.70
2022-08-26T15:41:35.089Z,14.40
2022-08-26T15:42:42.419Z,13.90
2022-08-26T15:43:50.637Z,14.40
2022-08-26T15:44:59.058Z,14.60
2022-08-26T15:46:07.119Z,14.10
2022-08-26T15:47:14.266Z,12.00
2022-08-26T15:48:21.767Z,13.60
2022-08-26T15:49:29.787Z,13.90
2022-08-26T15:50:38.059Z,14.40
2022-08-26T15:51:48.127Z,14.60
2022-08-26T15:52:56.014Z,13.40